Terminal Aerodrome Forecast
Issued by NWS

Home | Current Version | Previous Version | Graphics & Text | Print | Product List | Glossary On
Versions: 1 2 3 4 5 6 7 8 9 10 11 12 13
000
FTUS43 KICT 251736
TAFCNU
TAF
KCNU 251736Z 2518/2618 VRB15G25KT P6SM VCTS OVC040CB
     FM251900 06016G23KT P6SM VCTS OVC050CB
     FM252100 05023G31KT P6SM VCTS OVC040CB
     FM260000 01023G31KT 6SM -RA VCTS SCT015 OVC025CB
     FM260800 36010KT 4SM BR OVC050=

USA.gov is the U.S. government's official web portal to all federal, state and local government web resources and services.